createdAt,value
2016-09-28T00:00:50.707Z,1020.23
2016-09-28T00:01:50.729Z,1020.21
2016-09-28T00:02:50.753Z,1020.13
2016-09-28T00:03:50.778Z,1020.13
2016-09-28T00:04:50.800Z,1020.09
2016-09-28T00:05:50.824Z,1020.08
2016-09-28T00:06:50.846Z,1020.07
2016-09-28T00:07:50.869Z,1020.1
2016-09-28T00:08:50.890Z,1020.12
2016-09-28T00:09:50.913Z,1020.08
2016-09-28T00:10:50.939Z,1020.1
2016-09-28T00:11:50.960Z,1020.07
2016-09-28T00:12:50.984Z,1020.08
2016-09-28T00:14:51.029Z,1020.1
2016-09-28T00:15:51.050Z,1020.09
2016-09-28T00:16:51.077Z,1020.13
2016-09-28T00:17:51.098Z,1020.13
2016-09-28T00:18:51.127Z,1020.14
2016-09-28T00:19:51.143Z,1020.09
2016-09-28T00:20:51.167Z,1020.11
2016-09-28T00:21:51.190Z,1020.1
2016-09-28T00:22:51.213Z,1020.07
2016-09-28T00:23:51.236Z,1020.08
2016-09-28T00:24:51.257Z,1020.03
2016-09-28T00:25:51.281Z,1020.03
2016-09-28T00:26:51.306Z,1019.98
2016-09-28T00:27:51.328Z,1019.97
2016-09-28T00:28:51.351Z,1019.99
2016-09-28T00:29:51.375Z,1019.95
2016-09-28T00:30:51.397Z,1019.97
2016-09-28T00:31:51.418Z,1019.96
2016-09-28T00:32:51.442Z,1019.98
2016-09-28T00:33:51.465Z,1019.96
2016-09-28T00:34:51.488Z,1019.96
2016-09-28T00:35:51.512Z,1019.92
2016-09-28T00:36:51.534Z,1019.91
2016-09-28T00:37:51.555Z,1019.87
2016-09-28T00:38:51.579Z,1019.84
2016-09-28T00:39:51.602Z,1019.82
2016-09-28T00:40:51.623Z,1019.83
2016-09-28T00:41:51.648Z,1019.83
2016-09-28T00:42:51.669Z,1019.78
2016-09-28T00:43:51.692Z,1019.77
2016-09-28T00:44:51.713Z,1019.74
2016-09-28T00:46:51.760Z,1019.74
2016-09-28T00:47:51.783Z,1019.8
2016-09-28T00:48:51.807Z,1019.8
2016-09-28T00:49:51.827Z,1019.75
2016-09-28T00:50:51.851Z,1019.82
2016-09-28T00:51:51.876Z,1019.82
2016-09-28T00:52:51.897Z,1019.82
2016-09-28T00:53:51.918Z,1019.86
2016-09-28T00:54:51.943Z,1019.82
2016-09-28T00:55:51.962Z,1019.82
2016-09-28T00:56:51.988Z,1019.87
2016-09-28T00:57:52.013Z,1019.92
2016-09-28T00:58:52.031Z,1019.92
2016-09-28T00:59:52.056Z,1019.91
2016-09-28T01:00:52.079Z,1019.92
2016-09-28T01:02:52.122Z,1019.94
2016-09-28T01:03:52.143Z,1019.91
2016-09-28T01:04:52.167Z,1019.88
2016-09-28T01:05:52.191Z,1019.88
2016-09-28T01:06:52.211Z,1019.89
2016-09-28T01:07:52.237Z,1019.87
2016-09-28T01:08:52.259Z,1019.89
2016-09-28T01:09:52.282Z,1019.86
2016-09-28T01:10:52.303Z,1019.88
2016-09-28T01:11:52.324Z,1019.82
2016-09-28T01:12:52.350Z,1019.82
2016-09-28T01:13:52.370Z,1019.81
2016-09-28T01:14:52.395Z,1019.82
2016-09-28T01:15:52.416Z,1019.86
2016-09-28T01:16:52.438Z,1019.8
2016-09-28T01:18:52.483Z,1019.81
2016-09-28T01:19:52.506Z,1019.85
2016-09-28T01:20:52.531Z,1019.87
2016-09-28T01:21:52.552Z,1019.83
2016-09-28T01:22:52.576Z,1019.84
2016-09-28T01:23:52.598Z,1019.82
2016-09-28T01:24:52.619Z,1019.78
2016-09-28T01:25:52.641Z,1019.77
2016-09-28T01:26:52.665Z,1019.78
2016-09-28T01:27:52.687Z,1019.8
2016-09-28T01:28:52.711Z,1019.78
2016-09-28T01:29:52.731Z,1019.79
2016-09-28T01:30:52.755Z,1019.8
2016-09-28T01:31:52.780Z,1019.76
2016-09-28T01:32:52.799Z,1019.77
2016-09-28T01:34:52.847Z,1019.73
2016-09-28T01:35:52.868Z,1019.69
2016-09-28T01:36:52.890Z,1019.64
2016-09-28T01:37:52.912Z,1019.64
2016-09-28T01:38:53.186Z,1019.58
2016-09-28T01:39:52.957Z,1019.58
2016-09-28T01:40:52.980Z,1019.59
2016-09-28T01:41:53.003Z,1019.59
2016-09-28T01:42:53.040Z,1019.55
2016-09-28T01:43:53.047Z,1019.54
2016-09-28T01:44:53.070Z,1019.45
2016-09-28T01:45:53.093Z,1019.43
2016-09-28T01:46:53.116Z,1019.41
2016-09-28T01:47:53.141Z,1019.35
2016-09-28T01:49:53.185Z,1019.4
2016-09-28T01:50:53.207Z,1019.44
2016-09-28T01:51:53.231Z,1019.4
2016-09-28T01:52:53.302Z,1019.37
2016-09-28T01:53:53.275Z,1019.39
2016-09-28T01:54:53.299Z,1019.34
2016-09-28T01:55:53.322Z,1019.34
2016-09-28T01:56:53.343Z,1019.34
2016-09-28T01:57:53.364Z,1019.31
2016-09-28T01:58:53.386Z,1019.33
2016-09-28T01:59:53.461Z,1019.31
2016-09-28T02:00:53.433Z,1019.31
2016-09-28T02:01:53.453Z,1019.33
2016-09-28T02:02:53.482Z,1019.33
2016-09-28T02:03:53.501Z,1019.34
2016-09-28T02:04:53.524Z,1019.3
2016-09-28T02:05:53.544Z,1019.31
2016-09-28T02:06:53.569Z,1019.29
2016-09-28T02:07:53.641Z,1019.23
2016-09-28T02:08:53.613Z,1019.2
2016-09-28T02:09:53.633Z,1019.21
2016-09-28T02:10:53.658Z,1019.2
2016-09-28T02:11:53.695Z,1019.21
2016-09-28T02:12:53.700Z,1019.2
2016-09-28T02:13:53.723Z,1019.22
2016-09-28T02:14:53.752Z,1019.25
2016-09-28T02:15:53.768Z,1019.27
2016-09-28T02:16:53.790Z,1019.27
2016-09-28T02:17:53.815Z,1019.29
2016-09-28T02:18:53.838Z,1019.26
2016-09-28T02:19:53.857Z,1019.3
2016-09-28T02:21:53.903Z,1019.24
2016-09-28T02:22:53.925Z,1019.24
2016-09-28T02:23:53.949Z,1019.26
2016-09-28T02:24:53.970Z,1019.27
2016-09-28T02:25:53.994Z,1019.28
2016-09-28T02:26:54.015Z,1019.32
2016-09-28T02:27:54.038Z,1019.29
2016-09-28T02:28:54.059Z,1019.3
2016-09-28T02:29:54.084Z,1019.35
2016-09-28T02:30:54.103Z,1019.32
2016-09-28T02:31:54.129Z,1019.38
2016-09-28T02:32:54.149Z,1019.38
2016-09-28T02:33:54.174Z,1019.38
2016-09-28T02:34:54.194Z,1019.39
2016-09-28T02:35:54.216Z,1019.38
2016-09-28T02:37:54.262Z,1019.36
2016-09-28T02:38:54.288Z,1019.34
2016-09-28T02:39:54.306Z,1019.37
2016-09-28T02:40:54.329Z,1019.37
2016-09-28T02:41:54.351Z,1019.35
2016-09-28T02:42:54.375Z,1019.32
2016-09-28T02:43:54.395Z,1019.31
2016-09-28T02:44:54.418Z,1019.29
2016-09-28T02:45:54.441Z,1019.23
2016-09-28T02:46:54.464Z,1019.25
2016-09-28T02:47:54.487Z,1019.2
2016-09-28T02:48:54.510Z,1019.18
2016-09-28T02:49:54.529Z,1019.17
2016-09-28T02:50:54.552Z,1019.16
2016-09-28T02:51:54.577Z,1019.17
2016-09-28T02:53:54.620Z,1019.24
2016-09-28T02:54:54.641Z,1019.28
2016-09-28T02:55:54.666Z,1019.29
2016-09-28T02:56:54.688Z,1019.25
2016-09-28T02:57:54.710Z,1019.23
2016-09-28T02:58:54.734Z,1019.21
2016-09-28T02:59:54.753Z,1019.21
2016-09-28T03:00:54.778Z,1019.18
2016-09-28T03:01:54.798Z,1019.2
2016-09-28T03:02:54.822Z,1019.17
2016-09-28T03:03:54.843Z,1019.16
2016-09-28T03:04:54.865Z,1019.18
2016-09-28T03:05:54.889Z,1019.13
2016-09-28T03:06:54.910Z,1019.1
2016-09-28T03:07:54.934Z,1019.07
2016-09-28T03:09:54.977Z,1019.06
2016-09-28T03:10:54.999Z,1019.17
2016-09-28T03:11:55.020Z,1019.17
2016-09-28T03:12:55.043Z,1019.2
2016-09-28T03:13:55.066Z,1019.19
2016-09-28T03:14:55.088Z,1019.15
2016-09-28T03:15:55.112Z,1019.03
2016-09-28T03:16:55.133Z,1018.97
2016-09-28T03:17:55.163Z,1018.9
2016-09-28T03:18:55.179Z,1018.89
2016-09-28T03:19:55.202Z,1018.9
2016-09-28T03:20:55.225Z,1018.93
2016-09-28T03:21:55.245Z,1018.9
2016-09-28T03:22:55.270Z,1018.91
2016-09-28T03:24:55.315Z,1018.89
2016-09-28T03:25:55.336Z,1018.9
2016-09-28T03:26:55.358Z,1018.9
2016-09-28T03:27:55.381Z,1018.91
2016-09-28T03:28:55.404Z,1018.91
2016-09-28T03:29:55.424Z,1018.87
2016-09-28T03:30:55.448Z,1018.88
2016-09-28T03:31:55.471Z,1018.84
2016-09-28T03:32:55.491Z,1018.86
2016-09-28T03:33:55.513Z,1018.88
2016-09-28T03:34:55.539Z,1018.85
2016-09-28T03:35:55.560Z,1018.87
2016-09-28T03:36:55.582Z,1018.84
2016-09-28T03:37:55.605Z,1018.86
2016-09-28T03:38:55.626Z,1018.84
2016-09-28T03:39:55.655Z,1018.77
2016-09-28T03:40:55.669Z,1018.76
2016-09-28T03:41:55.694Z,1018.74
2016-09-28T03:42:55.714Z,1018.73
2016-09-28T03:43:55.736Z,1018.72
2016-09-28T03:44:55.760Z,1018.71
2016-09-28T03:45:56.033Z,1018.69
2016-09-28T03:46:55.803Z,1018.71
2016-09-28T03:47:55.825Z,1018.71
2016-09-28T03:48:55.847Z,1018.67
2016-09-28T03:49:55.870Z,1018.67
2016-09-28T03:50:55.893Z,1018.65
2016-09-28T03:51:55.913Z,1018.63
2016-09-28T03:52:55.936Z,1018.62
2016-09-28T03:53:55.960Z,1018.6
2016-09-28T03:54:55.980Z,1018.54
2016-09-28T03:56:56.025Z,1018.53
2016-09-28T03:57:56.048Z,1018.48
2016-09-28T03:58:56.072Z,1018.53
2016-09-28T03:59:56.092Z,1018.55
2016-09-28T04:00:56.117Z,1018.57
2016-09-28T04:01:56.139Z,1018.59
2016-09-28T04:02:56.159Z,1018.61
2016-09-28T04:03:56.184Z,1018.66
2016-09-28T04:04:56.204Z,1018.68
2016-09-28T04:05:56.225Z,1018.69
2016-09-28T04:06:56.250Z,1018.73
2016-09-28T04:07:56.270Z,1018.8
2016-09-28T04:08:56.293Z,1018.8
2016-09-28T04:09:56.314Z,1018.79
2016-09-28T04:10:56.338Z,1018.8
2016-09-28T04:12:56.382Z,1018.81
2016-09-28T04:13:56.405Z,1018.84
2016-09-28T04:14:56.426Z,1018.76
2016-09-28T04:15:56.448Z,1018.77
2016-09-28T04:16:56.470Z,1018.77
2016-09-28T04:17:56.493Z,1018.76
2016-09-28T04:18:56.516Z,1018.78
2016-09-28T04:19:56.538Z,1018.77
2016-09-28T04:20:56.561Z,1018.73
2016-09-28T04:21:56.584Z,1018.72
2016-09-28T04:22:56.605Z,1018.68
2016-09-28T04:23:56.627Z,1018.67
2016-09-28T04:24:56.650Z,1018.64
2016-09-28T04:25:56.673Z,1018.6
2016-09-28T04:26:56.694Z,1018.62
2016-09-28T04:28:56.741Z,1018.62
2016-09-28T04:29:56.761Z,1018.6
2016-09-28T04:30:56.784Z,1018.61
2016-09-28T04:31:56.807Z,1018.57
2016-09-28T04:32:56.830Z,1018.55
2016-09-28T04:33:56.853Z,1018.52
2016-09-28T04:34:56.875Z,1018.48
2016-09-28T04:35:56.895Z,1018.45
2016-09-28T04:36:56.923Z,1018.45
2016-09-28T04:37:56.956Z,1018.41
2016-09-28T04:38:56.963Z,1018.42
2016-09-28T04:39:56.984Z,1018.41
2016-09-28T04:40:57.007Z,1018.39
2016-09-28T04:41:57.032Z,1018.4
2016-09-28T04:42:57.053Z,1018.3
2016-09-28T04:44:57.096Z,1018.25
2016-09-28T04:45:57.121Z,1018.27
2016-09-28T04:46:57.141Z,1018.27
2016-09-28T04:47:57.166Z,1018.26
2016-09-28T04:48:57.188Z,1018.3
2016-09-28T04:49:57.210Z,1018.22
2016-09-28T04:50:57.232Z,1018.19
2016-09-28T04:51:57.256Z,1018.16
2016-09-28T04:52:57.275Z,1018.18
2016-09-28T04:53:57.297Z,1018.19
2016-09-28T04:54:57.321Z,1018.17
2016-09-28T04:55:57.344Z,1018.14
2016-09-28T04:56:57.365Z,1018.11
2016-09-28T04:57:57.389Z,1018.1
2016-09-28T04:59:57.435Z,1018.1
2016-09-28T05:00:57.454Z,1018.08
2016-09-28T05:01:57.478Z,1018.11
2016-09-28T05:02:57.500Z,1018.07
2016-09-28T05:03:57.522Z,1018.05
2016-09-28T05:04:57.546Z,1017.98
2016-09-28T05:05:57.569Z,1017.95
2016-09-28T05:06:57.589Z,1017.95
2016-09-28T05:07:57.613Z,1017.96
2016-09-28T05:08:57.636Z,1017.97
2016-09-28T05:09:57.657Z,1018.01
2016-09-28T05:10:57.681Z,1017.98
2016-09-28T05:11:57.704Z,1017.98
2016-09-28T05:12:57.724Z,1018.01
2016-09-28T05:13:57.746Z,1017.94
2016-09-28T05:14:57.770Z,1017.95
2016-09-28T05:15:57.789Z,1017.94
2016-09-28T05:16:57.877Z,1017.96
2016-09-28T05:17:57.835Z,1017.92
2016-09-28T05:18:57.859Z,1017.95
2016-09-28T05:19:57.879Z,1017.99
2016-09-28T05:20:57.920Z,1017.99
2016-09-28T05:21:57.925Z,1018
2016-09-28T05:22:57.947Z,1017.98
2016-09-28T05:23:57.970Z,1017.98
2016-09-28T05:24:57.992Z,1017.98
2016-09-28T05:25:58.015Z,1018.04
2016-09-28T05:26:58.039Z,1018.04
2016-09-28T05:27:58.062Z,1018.1
2016-09-28T05:28:58.085Z,1018.08
2016-09-28T05:29:58.112Z,1018.06
2016-09-28T05:31:58.152Z,1017.96
2016-09-28T05:32:58.173Z,1017.92
2016-09-28T05:33:58.195Z,1017.96
2016-09-28T05:34:58.220Z,1017.97
2016-09-28T05:35:58.241Z,1017.98
2016-09-28T05:36:58.266Z,1017.96
2016-09-28T05:37:58.286Z,1018
2016-09-28T05:38:58.308Z,1018.01
2016-09-28T05:39:58.331Z,1018.06
2016-09-28T05:40:58.356Z,1018.11
2016-09-28T05:41:58.379Z,1018.13
2016-09-28T05:42:58.400Z,1018.12
2016-09-28T05:43:58.425Z,1018.09
2016-09-28T05:44:58.444Z,1018.08
2016-09-28T05:45:58.469Z,1018.09
2016-09-28T05:47:58.514Z,1018.01
2016-09-28T05:48:58.535Z,1018.02
2016-09-28T05:49:58.559Z,1017.97
2016-09-28T05:50:58.582Z,1017.85
2016-09-28T05:51:58.606Z,1017.79
2016-09-28T05:52:58.628Z,1017.77
2016-09-28T05:53:58.650Z,1017.74
2016-09-28T05:54:58.675Z,1017.73
2016-09-28T05:55:58.696Z,1017.68
2016-09-28T05:56:58.718Z,1017.71
2016-09-28T05:57:58.743Z,1017.73
2016-09-28T05:58:58.765Z,1017.75
2016-09-28T05:59:58.788Z,1017.78
2016-09-28T06:00:58.810Z,1017.69
2016-09-28T06:01:58.836Z,1017.73
2016-09-28T06:03:58.881Z,1017.79
2016-09-28T06:04:58.905Z,1017.75
2016-09-28T06:05:58.928Z,1017.72
2016-09-28T06:06:58.951Z,1017.73
2016-09-28T06:07:58.974Z,1017.79
2016-09-28T06:08:58.994Z,1017.73
2016-09-28T06:09:59.020Z,1017.72
2016-09-28T06:10:59.042Z,1017.71
2016-09-28T06:11:59.064Z,1017.7
2016-09-28T06:12:59.090Z,1017.57
2016-09-28T06:13:59.112Z,1017.6
2016-09-28T06:14:59.134Z,1017.52
2016-09-28T06:15:59.158Z,1017.51
2016-09-28T06:16:59.180Z,1017.49
2016-09-28T06:17:59.202Z,1017.52
2016-09-28T06:19:59.250Z,1017.51
2016-09-28T06:20:59.274Z,1017.49
2016-09-28T06:21:59.294Z,1017.48
2016-09-28T06:22:59.320Z,1017.37
2016-09-28T06:23:59.360Z,1017.34
2016-09-28T06:24:59.365Z,1017.21
2016-09-28T06:25:59.388Z,1017.14
2016-09-28T06:26:59.418Z,1017.15
2016-09-28T06:27:59.437Z,1017.11
2016-09-28T06:28:59.460Z,1017.15
2016-09-28T06:29:59.484Z,1017.11
2016-09-28T06:30:59.507Z,1017.12
2016-09-28T06:31:59.529Z,1017.13
2016-09-28T06:32:59.555Z,1017.12
2016-09-28T06:34:59.600Z,1017.17
2016-09-28T06:35:59.623Z,1017.21
2016-09-28T06:36:59.646Z,1017.23
2016-09-28T06:37:59.670Z,1017.21
2016-09-28T06:38:59.695Z,1017.18
2016-09-28T06:39:59.716Z,1017.14
2016-09-28T06:40:59.742Z,1017.08
2016-09-28T06:41:59.766Z,1017
2016-09-28T06:42:59.788Z,1016.85
2016-09-28T06:43:59.810Z,1016.71
2016-09-28T06:44:59.835Z,1016.58
2016-09-28T06:45:59.859Z,1016.51
2016-09-28T06:46:59.880Z,1016.55
2016-09-28T06:47:59.904Z,1016.64
2016-09-28T06:48:59.928Z,1016.65
2016-09-28T06:49:59.953Z,1016.64
2016-09-28T06:50:59.974Z,1016.65
2016-09-28T06:51:59.999Z,1016.67
2016-09-28T06:53:00.022Z,1016.69
2016-09-28T06:54:00.047Z,1016.68
2016-09-28T06:55:00.068Z,1016.65
2016-09-28T06:56:00.095Z,1016.7
2016-09-28T06:57:00.116Z,1016.65
2016-09-28T06:58:00.140Z,1016.63
2016-09-28T06:59:00.165Z,1016.62
2016-09-28T07:00:00.188Z,1016.66
2016-09-28T07:01:00.212Z,1016.64
2016-09-28T07:02:00.234Z,1016.62
2016-09-28T07:03:00.258Z,1016.62
2016-09-28T07:04:00.283Z,1016.68
2016-09-28T07:05:00.305Z,1016.7
2016-09-28T07:07:00.352Z,1016.63
2016-09-28T07:08:00.378Z,1016.59
2016-09-28T07:09:00.401Z,1016.53
2016-09-28T07:10:00.423Z,1016.51
2016-09-28T07:11:00.447Z,1016.55
2016-09-28T07:12:00.476Z,1016.49
2016-09-28T07:13:00.496Z,1016.55
2016-09-28T07:14:00.518Z,1016.68
2016-09-28T07:15:00.544Z,1016.64
2016-09-28T07:16:00.567Z,1016.63
2016-09-28T07:17:00.591Z,1016.58
2016-09-28T07:18:00.615Z,1016.66
2016-09-28T07:19:00.637Z,1016.69
2016-09-28T07:20:00.661Z,1016.74
2016-09-28T07:21:00.686Z,1016.72
2016-09-28T07:23:00.734Z,1016.76
2016-09-28T07:24:00.756Z,1016.75
2016-09-28T07:25:00.782Z,1016.85
2016-09-28T07:26:00.806Z,1016.83
2016-09-28T07:27:00.830Z,1016.87
2016-09-28T07:28:00.852Z,1016.85
2016-09-28T07:29:00.882Z,1016.76
2016-09-28T07:30:00.901Z,1016.76
2016-09-28T07:31:00.923Z,1016.77
2016-09-28T07:32:00.947Z,1016.79
2016-09-28T07:33:00.972Z,1016.84
2016-09-28T07:34:00.998Z,1016.84
2016-09-28T07:35:01.019Z,1016.82
2016-09-28T07:36:01.147Z,1016.88
2016-09-28T07:37:01.068Z,1016.82
2016-09-28T07:39:01.116Z,1016.83
2016-09-28T07:40:01.142Z,1016.86
2016-09-28T07:41:01.165Z,1016.79
2016-09-28T07:42:01.190Z,1016.87
2016-09-28T07:43:01.212Z,1016.81
2016-09-28T07:44:01.237Z,1016.82
2016-09-28T07:45:01.264Z,1016.86
2016-09-28T07:46:01.285Z,1016.81
2016-09-28T07:47:01.310Z,1016.81
2016-09-28T07:48:01.337Z,1016.84
2016-09-28T07:49:01.361Z,1016.85
2016-09-28T07:50:01.385Z,1016.85
2016-09-28T07:51:01.409Z,1016.83
2016-09-28T07:52:01.434Z,1016.83
2016-09-28T07:53:01.464Z,1016.79
2016-09-28T07:55:01.506Z,1016.83
2016-09-28T07:56:01.533Z,1016.82
2016-09-28T07:57:01.554Z,1016.71
2016-09-28T07:58:01.587Z,1016.73
2016-09-28T07:59:01.610Z,1016.7
2016-09-28T08:00:01.629Z,1016.75
2016-09-28T08:01:01.954Z,1016.72
2016-09-28T08:02:01.680Z,1016.68
2016-09-28T08:03:01.706Z,1016.63
2016-09-28T08:04:01.728Z,1016.65
2016-09-28T08:05:01.755Z,1016.66
2016-09-28T08:06:01.780Z,1016.69
2016-09-28T08:07:01.805Z,1016.6
2016-09-28T08:08:01.830Z,1016.6
2016-09-28T08:10:01.881Z,1016.6
2016-09-28T08:11:01.903Z,1016.55
2016-09-28T08:12:01.931Z,1016.54
2016-09-28T08:13:01.954Z,1016.52
2016-09-28T08:14:01.980Z,1016.47
2016-09-28T08:15:02.005Z,1016.45
2016-09-28T08:16:02.031Z,1016.45
2016-09-28T08:17:02.057Z,1016.52
2016-09-28T08:18:02.079Z,1016.48
2016-09-28T08:19:02.105Z,1016.62
2016-09-28T08:20:02.131Z,1016.61
2016-09-28T08:21:02.158Z,1016.67
2016-09-28T08:22:02.184Z,1016.64
2016-09-28T08:23:02.209Z,1016.61
2016-09-28T08:24:02.235Z,1016.51
2016-09-28T08:25:02.258Z,1016.62
2016-09-28T08:26:02.283Z,1016.53
2016-09-28T08:27:02.309Z,1016.55
2016-09-28T08:28:02.337Z,1016.52
2016-09-28T08:29:02.360Z,1016.57
2016-09-28T08:30:02.386Z,1016.58
2016-09-28T08:31:02.413Z,1016.5
2016-09-28T08:32:02.437Z,1016.55
2016-09-28T08:33:02.464Z,1016.55
2016-09-28T08:34:02.490Z,1016.59
2016-09-28T08:35:02.515Z,1016.6
2016-09-28T08:36:02.541Z,1016.55
2016-09-28T08:37:02.566Z,1016.48
2016-09-28T08:38:02.590Z,1016.48
2016-09-28T08:39:02.618Z,1016.49
2016-09-28T08:40:02.644Z,1016.46
2016-09-28T08:42:02.695Z,1016.48
2016-09-28T08:43:02.720Z,1016.42
2016-09-28T08:44:02.744Z,1016.39
2016-09-28T08:45:02.771Z,1016.38
2016-09-28T08:46:02.795Z,1016.41
2016-09-28T08:47:02.821Z,1016.34
2016-09-28T08:48:02.846Z,1016.33
2016-09-28T08:49:02.875Z,1016.36
2016-09-28T08:50:02.897Z,1016.33
2016-09-28T08:51:02.922Z,1016.37
2016-09-28T08:52:02.948Z,1016.36
2016-09-28T08:53:02.976Z,1016.37
2016-09-28T08:54:03.002Z,1016.42
2016-09-28T08:55:03.024Z,1016.41
2016-09-28T08:56:03.051Z,1016.42
2016-09-28T08:58:03.102Z,1016.4
2016-09-28T08:59:03.129Z,1016.32
2016-09-28T09:00:03.155Z,1016.36
2016-09-28T09:01:03.181Z,1016.3
2016-09-28T09:02:03.204Z,1016.29
2016-09-28T09:03:03.229Z,1016.21
2016-09-28T09:04:03.258Z,1016.24
2016-09-28T09:05:03.284Z,1016.21
2016-09-28T09:06:03.309Z,1016.25
2016-09-28T09:07:03.335Z,1016.21
2016-09-28T09:08:03.361Z,1016.23
2016-09-28T09:09:03.385Z,1016.23
2016-09-28T09:10:03.410Z,1016.29
2016-09-28T09:11:03.438Z,1016.33
2016-09-28T09:12:03.464Z,1016.35
2016-09-28T09:14:03.515Z,1016.35
2016-09-28T09:15:03.546Z,1016.23
2016-09-28T09:16:03.565Z,1016.2
2016-09-28T09:17:03.594Z,1016.19
2016-09-28T09:18:03.618Z,1016.15
2016-09-28T09:19:03.646Z,1016.15
2016-09-28T09:20:03.670Z,1016.22
2016-09-28T09:21:03.698Z,1016.22
2016-09-28T09:22:03.723Z,1016.24
2016-09-28T09:23:03.750Z,1016.2
2016-09-28T09:24:03.775Z,1016.09
2016-09-28T09:25:03.803Z,1016.07
2016-09-28T09:26:03.827Z,1016.15
2016-09-28T09:27:03.851Z,1016.07
2016-09-28T09:28:03.879Z,1016.15
2016-09-28T09:30:03.931Z,1016.07
2016-09-28T09:31:03.956Z,1016.1
2016-09-28T09:32:03.983Z,1016.04
2016-09-28T09:33:04.010Z,1016.04
2016-09-28T09:34:04.034Z,1016.07
2016-09-28T09:35:04.061Z,1016.01
2016-09-28T09:36:04.085Z,1015.99
2016-09-28T09:37:04.128Z,1016.01
2016-09-28T09:38:04.140Z,1015.97
2016-09-28T09:39:04.165Z,1015.98
2016-09-28T09:40:04.192Z,1015.91
2016-09-28T09:41:04.216Z,1015.86
2016-09-28T09:42:04.244Z,1015.84
2016-09-28T09:43:04.271Z,1015.94
2016-09-28T09:45:04.321Z,1015.87
2016-09-28T09:46:04.349Z,1015.92
2016-09-28T09:47:04.375Z,1015.88
2016-09-28T09:48:04.402Z,1015.94
2016-09-28T09:49:04.426Z,1015.98
2016-09-28T09:50:04.453Z,1016.06
2016-09-28T09:51:04.479Z,1016.04
2016-09-28T09:52:04.505Z,1015.99
2016-09-28T09:53:04.531Z,1016.08
2016-09-28T09:54:04.558Z,1016.04
2016-09-28T09:55:04.582Z,1016.05
2016-09-28T09:56:04.607Z,1016.01
2016-09-28T09:57:04.633Z,1016.03
2016-09-28T09:58:04.661Z,1016.01
2016-09-28T09:59:04.687Z,1015.94
2016-09-28T10:00:04.714Z,1015.93
2016-09-28T10:01:04.739Z,1015.93
2016-09-28T10:02:04.764Z,1016
2016-09-28T10:03:04.789Z,1016.01
2016-09-28T10:04:04.814Z,1015.97
2016-09-28T10:05:04.840Z,1015.96
2016-09-28T10:06:04.867Z,1015.97
2016-09-28T10:07:04.893Z,1015.92
2016-09-28T10:08:04.920Z,1015.92
2016-09-28T10:09:04.945Z,1015.99
2016-09-28T10:10:04.973Z,1015.95
2016-09-28T10:11:04.999Z,1015.93
2016-09-28T10:12:05.024Z,1015.87
2016-09-28T10:13:05.048Z,1015.77
2016-09-28T10:14:05.075Z,1015.77
2016-09-28T10:15:05.100Z,1015.8
2016-09-28T10:17:05.152Z,1015.77
2016-09-28T10:18:05.180Z,1015.82
2016-09-28T10:19:05.205Z,1015.85
2016-09-28T10:20:05.230Z,1015.78
2016-09-28T10:21:05.255Z,1015.75
2016-09-28T10:22:05.281Z,1015.66
2016-09-28T10:23:05.309Z,1015.64
2016-09-28T10:24:05.333Z,1015.64
2016-09-28T10:25:05.359Z,1015.61
2016-09-28T10:26:05.387Z,1015.6
2016-09-28T10:27:05.412Z,1015.55
2016-09-28T10:28:05.438Z,1015.59
2016-09-28T10:29:05.465Z,1015.53
2016-09-28T10:30:05.488Z,1015.66
2016-09-28T10:31:05.516Z,1015.72
2016-09-28T10:33:05.567Z,1015.77
2016-09-28T10:34:05.594Z,1015.73
2016-09-28T10:35:05.620Z,1015.66
2016-09-28T10:36:05.644Z,1015.64
2016-09-28T10:37:05.671Z,1015.59
2016-09-28T10:38:05.696Z,1015.5
2016-09-28T10:39:05.724Z,1015.58
2016-09-28T10:40:05.749Z,1015.62
2016-09-28T10:41:05.773Z,1015.56
2016-09-28T10:42:05.800Z,1015.6
2016-09-28T10:43:05.828Z,1015.63
2016-09-28T10:44:05.855Z,1015.66
2016-09-28T10:45:05.878Z,1015.69
2016-09-28T10:46:05.906Z,1015.62
2016-09-28T10:47:05.935Z,1015.66
2016-09-28T10:49:05.983Z,1015.67
2016-09-28T10:50:06.010Z,1015.68
2016-09-28T10:51:06.036Z,1015.65
2016-09-28T10:52:06.060Z,1015.7
2016-09-28T10:53:06.088Z,1015.71
2016-09-28T10:54:06.113Z,1015.83
2016-09-28T10:55:06.140Z,1015.8
2016-09-28T10:56:06.165Z,1015.8
2016-09-28T10:57:06.191Z,1015.73
2016-09-28T10:58:06.219Z,1015.69
2016-09-28T10:59:06.244Z,1015.7
2016-09-28T11:00:06.269Z,1015.71
2016-09-28T11:01:06.297Z,1015.77
2016-09-28T11:02:06.321Z,1015.77
2016-09-28T11:03:06.349Z,1015.74
2016-09-28T11:05:06.402Z,1015.65
2016-09-28T11:06:06.426Z,1015.77
2016-09-28T11:07:06.452Z,1015.8
2016-09-28T11:08:06.480Z,1015.67
2016-09-28T11:09:06.507Z,1015.72
2016-09-28T11:10:06.531Z,1015.7
2016-09-28T11:11:06.556Z,1015.67
2016-09-28T11:12:06.585Z,1015.61
2016-09-28T11:13:06.610Z,1015.67
2016-09-28T11:14:06.637Z,1015.64
2016-09-28T11:15:06.663Z,1015.69
2016-09-28T11:16:06.688Z,1015.62
2016-09-28T11:17:06.715Z,1015.53
2016-09-28T11:18:06.741Z,1015.46
2016-09-28T11:20:06.798Z,1015.55
2016-09-28T11:21:06.819Z,1015.5
2016-09-28T11:22:06.846Z,1015.58
2016-09-28T11:23:06.874Z,1015.49
2016-09-28T11:24:06.900Z,1015.48
2016-09-28T11:25:06.924Z,1015.44
2016-09-28T11:26:06.951Z,1015.45
2016-09-28T11:27:06.980Z,1015.44
2016-09-28T11:28:07.006Z,1015.52
2016-09-28T11:29:07.031Z,1015.49
2016-09-28T11:30:07.058Z,1015.56
2016-09-28T11:31:07.087Z,1015.5
2016-09-28T11:32:07.113Z,1015.53
2016-09-28T11:33:07.138Z,1015.57
2016-09-28T11:34:07.165Z,1015.49
2016-09-28T11:35:07.194Z,1015.46
2016-09-28T11:36:07.218Z,1015.48
2016-09-28T11:37:07.247Z,1015.48
2016-09-28T11:38:07.272Z,1015.51
2016-09-28T11:39:07.300Z,1015.46
2016-09-28T11:40:07.326Z,1015.4
2016-09-28T11:41:07.355Z,1015.47
2016-09-28T11:42:07.382Z,1015.49
2016-09-28T11:43:07.406Z,1015.51
2016-09-28T11:44:07.434Z,1015.53
2016-09-28T11:45:07.463Z,1015.47
2016-09-28T11:46:07.488Z,1015.5
2016-09-28T11:47:07.517Z,1015.51
2016-09-28T11:48:07.545Z,1015.44
2016-09-28T11:49:07.572Z,1015.38
2016-09-28T11:50:07.597Z,1015.38
2016-09-28T11:52:07.653Z,1015.54
2016-09-28T11:53:07.681Z,1015.49
2016-09-28T11:54:07.709Z,1015.51
2016-09-28T11:55:07.735Z,1015.47
2016-09-28T11:56:07.767Z,1015.49
2016-09-28T11:57:07.791Z,1015.53
2016-09-28T11:58:07.817Z,1015.55
2016-09-28T11:59:07.846Z,1015.37
2016-09-28T12:00:07.871Z,1015.44
2016-09-28T12:01:07.897Z,1015.46
2016-09-28T12:02:07.927Z,1015.49
2016-09-28T12:03:07.953Z,1015.5
2016-09-28T12:04:07.982Z,1015.44
2016-09-28T12:05:08.010Z,1015.44
2016-09-28T12:06:08.038Z,1015.4
2016-09-28T12:08:08.093Z,1015.4
2016-09-28T12:09:08.118Z,1015.54
2016-09-28T12:10:08.145Z,1015.48
2016-09-28T12:11:08.175Z,1015.42
2016-09-28T12:12:08.202Z,1015.42
2016-09-28T12:13:08.229Z,1015.46
2016-09-28T12:14:08.257Z,1015.39
2016-09-28T12:15:08.285Z,1015.45
2016-09-28T12:16:08.309Z,1015.34
2016-09-28T12:17:08.337Z,1015.37
2016-09-28T12:18:08.367Z,1015.3
2016-09-28T12:19:08.394Z,1015.24
2016-09-28T12:20:08.421Z,1015.32
2016-09-28T12:21:08.448Z,1015.26
2016-09-28T12:22:08.476Z,1015.31
2016-09-28T12:24:08.529Z,1015.3
2016-09-28T12:25:08.555Z,1015.36
2016-09-28T12:26:08.585Z,1015.29
2016-09-28T12:27:08.611Z,1015.27
2016-09-28T12:28:08.639Z,1015.29
2016-09-28T12:29:08.667Z,1015.31
2016-09-28T12:30:08.692Z,1015.26
2016-09-28T12:31:08.723Z,1015.32
2016-09-28T12:32:08.747Z,1015.28
2016-09-28T12:33:08.774Z,1015.28
2016-09-28T12:34:08.801Z,1015.3
2016-09-28T12:35:08.877Z,1015.32
2016-09-28T12:36:08.857Z,1015.33
2016-09-28T12:37:08.883Z,1015.36
2016-09-28T12:38:08.909Z,1015.3
2016-09-28T12:40:08.967Z,1015.25
2016-09-28T12:41:08.992Z,1015.26
2016-09-28T12:42:09.021Z,1015.3
2016-09-28T12:43:09.046Z,1015.35
2016-09-28T12:44:09.074Z,1015.24
2016-09-28T12:45:09.102Z,1015.25
2016-09-28T12:46:09.130Z,1015.25
2016-09-28T12:47:09.156Z,1015.35
2016-09-28T12:48:09.185Z,1015.28
2016-09-28T12:49:09.209Z,1015.26